Laramie Regional Airport
KLAR : now visible

Airfield :











YOU CAN JOIN US ON...

 
LOGIN :

Register | Disclaimer

   EN    FR    IT 

 









Legend :    VFR   Marginal VFR   IFR   Intensive IFR   Very Intensive IFR
Visi :
Ceiling :
>= 8 km
>= 3000ft
5 to 8 km
1000 to 3000 ft
1500m to 5 km
500 to 1000 ft
800 to 1500m
200 to 500 ft
< 800m
< 200 ft
Symbols :   Thunderstorms  Fog  Heavy snow  Heavy precipitations  Wind > 20 kt






- Airport Elevation : 7284 ft
- IATA code : LAR


KLAR - Laramie Regional

CURRENT METAR :
  • 062353Z AUTO 25026G36KT 10SM CLR 14/M14 A2987 RMK AO2 PK WND 25038/2306 SLP065 T01391144 10161 20122 53004

EXPIRED METARs :
  • 062253Z AUTO 24025G34KT 10SM CLR 15/M14 A2986 RMK AO2 PK WND 26040/2155 SLP055 T01501144
  • 062153Z AUTO 25029G37KT 10SM CLR 15/M14 A2986 RMK AO2 PK WND 22041/2136 SLP050 T01501144

TAF KLAR
Valid from the 07 at 00:00 until the 08 at 00:00 UTC


062320Z 0700/0724 24025G35KT P6SM SCT120
FM070200 27012KT P6SM SCT120
FM071500 26025G37KT P6SM SCT120



MET'MAP, your aeronautical weather chart ! - Copyright ORBIFLY December 2007 - Disclaimer

ORBIFLY MET'MAP TEAM :

Programming & Development : Alexandra Zaïnal
Concept & original design : Baudouin d'Aumeries
Assistance for programming : Marc-Olivier Méhu
Technical & hardware support : Manuel Goepfert

Contact : metmap@orbifly.com




SOURCES & CREDITS :

   NOAA       Earth
Advisory